This is the latest recevied weather packets stored in our database for station/object DL1BWU. If no packets are shown the sender has not sent any weather packets the latest 10 day(s).
| Time | Temp. | Humidity | Pressure | Rain* | Wind** | Luminosity | Snow |
|---|---|---|---|---|---|---|---|
| 1777493725 | 6.67° C | 48% | 1031.6 hPa | 0 mm | - | - | - |
| 1777490125 | 8.89° C | 44% | 1030.9 hPa | 0 mm | - | - | - |
| 1777469726 | 15.56° C | 33% | 1030.2 hPa | 0 mm | - | - | - |
| 1777468526 | 15° C | 33% | 1030.3 hPa | 0 mm | - | - | - |
| 1777466726 | 14.44° C | 33% | 1030.4 hPa | 0 mm | - | - | - |
| 1777466126 | 14.44° C | 32% | 1030.4 hPa | 0 mm | - | - | - |
| 1777464926 | 14.44° C | 33% | 1030.5 hPa | 0 mm | - | - | - |
| 1777463726 | 13.89° C | 34% | 1030.6 hPa | 0 mm | - | - | - |
| 1777462526 | 14.44° C | 34% | 1030.7 hPa | 0 mm | - | - | - |
| 1777461926 | 14.44° C | 34% | 1030.8 hPa | 0 mm | - | - | - |
| 1777461326 | 13.89° C | 35% | 1031.1 hPa | 0 mm | - | - | - |
| 1777460726 | 13.89° C | 34% | 1031 hPa | 0 mm | - | - | - |
| 1777458926 | 13.33° C | 35% | 1031 hPa | 0 mm | - | - | - |
| 1777458326 | 13.33° C | 36% | 1031.1 hPa | 0 mm | - | - | - |
| 1777457726 | 13.33° C | 36% | 1031.1 hPa | 0 mm | - | - | - |
| 1777457126 | 12.78° C | 36% | 1031 hPa | 0 mm | - | - | - |
| 1777456526 | 12.78° C | 36% | 1030.9 hPa | 0 mm | - | - | - |
| 1777455326 | 12.22° C | 37% | 1031.1 hPa | 0 mm | - | - | - |
| 1777454726 | 12.22° C | 37% | 1031.1 hPa | 0 mm | - | - | - |
| 1777454126 | 11.67° C | 37% | 1031 hPa | 0 mm | - | - | - |
| 1777453526 | 11.67° C | 37% | 1031 hPa | 0 mm | - | - | - |
| 1777452926 | 11.11° C | 38% | 1031.1 hPa | 0 mm | - | - | - |
| 1777451726 | 10.56° C | 37% | 1031.1 hPa | 0 mm | - | - | - |
| 1777451126 | 10° C | 38% | 1031.1 hPa | 0 mm | - | - | - |
| 1777450526 | 10° C | 39% | 1031.1 hPa | 0 mm | - | - | - |
* Rain latest hour (hover to see other rain measurements)
** Current wind speed in m/s (hover to see current wind gust speed)